• Join FlightAware (Why Join?)
  • Login
  • US Flag 
04:44PM EST


 

Airport Tracker/Info


-or-


 

Live Flight TrackerFlight Track Log ✈ UPS1337 ✈ 01-May-2014 ✈ KPIE - KSDF

Flight Track Log - Related Links

Times and Time Zones

All times are in EDT time to prevent confusion due to time zone crossing. See the UPS1337 flight status page for this flight to view local times or setup timezone preferences in your user account.

Time Position Orientation Groundspeed Altitude Reporting Facility
EDT Latitude Longitude Course Direction KTS MPH feet Rate Location/Type
09:37PM 27.9167 -82.6833 360° North 182 209 800  Level Tampa TRACON
09:38PM 27.9833 -82.6833 360° North 220 253 2,800 1,560 Climbing Tampa TRACON
09:39PM 28.0500 -82.6500 24° Northeast 303 349 4,000 1,020 Climbing Tampa TRACON
09:40PM 28.1333 -82.6500 360° North 292 336 4,900 2,220 Climbing Tampa TRACON
09:42PM 28.2542 -82.6828 347° North 320 368 10,000 2,520 Climbing Jacksonville Center
09:43PM 28.3481 -82.7039 349° North 321 369 11,700 2,100 Climbing Jacksonville Center
09:44PM 28.4544 -82.7297 348° North 352 405 14,200 2,400 Climbing Jacksonville Center
09:45PM 28.5694 -82.7578 348° North 390 449 16,600 2,460 Climbing Jacksonville Center
09:46PM 28.6925 -82.7861 349° North 425 489 19,200 2,520 Climbing Jacksonville Center
09:47PM 28.8011 -82.8428 335° Northwest 430 495 21,700 2,220 Climbing Jacksonville Center
09:48PM 28.9033 -82.9233 325° Northwest 436 502 23,700 1,860 Climbing Jacksonville Center
09:49PM 29.0306 -82.9708 342° North 452 520 25,500 2,100 Climbing Jacksonville Center
09:50PM 29.1536 -83.0186 341° North 461 531 28,000 2,340 Climbing Jacksonville Center
09:51PM 29.2728 -83.0664 341° North 466 536 30,200 1,740 Climbing Jacksonville Center
09:52PM 29.3978 -83.1094 343° North 466 536 31,500 1,320 Climbing Jacksonville Center
09:53PM 29.5397 -83.1553 344° North 471 542 32,900 1,200 Climbing Jacksonville Center
09:54PM 29.6669 -83.1936 345° North 471 542 33,900 540 Climbing Jacksonville Center
09:55PM 29.7964 -83.2347 345° North 476 548 34,000  Climbing Jacksonville Center
09:56PM 29.9236 -83.2711 346° North 471 542 33,900  Descending Jacksonville Center
09:57PM 30.0528 -83.3100 345° North 471 542 34,000  Climbing Jacksonville Center
09:58PM 30.1800 -83.3492 345° North 471 542 34,000 -60 Level Jacksonville Center
09:59PM 30.3031 -83.3833 347° North 466 536 33,900  Descending Jacksonville Center
10:00PM 30.4303 -83.4225 345° North 466 536 34,000  Climbing Jacksonville Center
10:01PM 30.5556 -83.4594 346° North 466 536 34,000  Level Jacksonville Center
10:02PM 30.6783 -83.4989 345° North 461 531 34,000  Level Jacksonville Center
10:03PM 30.8036 -83.5383 345° North 456 525 34,000  Level Jacksonville Center
10:04PM 30.9244 -83.5731 346° North 451 519 34,000  Level Jacksonville Center
10:05PM 31.0494 -83.6153 344° North 456 525 34,000  Level Jacksonville Center
10:06PM 31.1747 -83.6525 346° North 456 525 34,000  Level Jacksonville Center
10:07PM 31.2997 -83.6925 345° North 456 525 34,000  Level Jacksonville Center
10:08PM 31.4225 -83.7300 345° North 456 525 34,000  Level Jacksonville Center
10:09PM 31.5456 -83.7703 344° North 456 525 34,000  Level Jacksonville Center
10:11PM 31.7339 -83.8314 345° North 514 592 34,000  Level Atlanta Center
10:12PM 31.8592 -83.8678 346° North 487 560 34,000  Level Atlanta Center
10:13PM 31.9844 -83.9067 345° North 469 540 34,000  Level Atlanta Center
10:14PM 32.1097 -83.9456 345° North 464 534 34,000  Level Atlanta Center
10:15PM 32.2350 -83.9847 345° North 464 534 34,000  Level Atlanta Center
10:16PM 32.3603 -84.0267 344° North 464 534 34,000  Level Atlanta Center
10:17PM 32.4856 -84.0658 345° North 464 534 34,000  Level Atlanta Center
10:18PM 32.6192 -84.0881 352° North 464 534 34,000  Level Atlanta Center
10:19PM 32.7506 -84.1106 352° North 469 540 34,000  Level Atlanta Center
10:20PM 32.8819 -84.1303 353° North 469 540 34,000  Level Atlanta Center
10:21PM 33.0136 -84.1528 352° North 474 545 34,000  Level Atlanta Center
10:22PM 33.1533 -84.1753 352° North 474 545 34,000  Level Atlanta Center
10:23PM 33.2847 -84.1978 352° North 470 541 34,000  Level Atlanta Center
10:27PM 34.0612 -84.3205 352° North 473 544 34,000  Level FlightAware ADS-B (KDZJ)
10:28PM 34.1477 -84.3351 352° North 473 544 34,000  Level FlightAware ADS-B (KDZJ)
10:28PM 34.2323 -84.3547 344° North 453 521 34,000  Level FlightAware ADS-B (KDZJ)
10:29PM 34.3169 -84.3838 344° North 450 518 34,000  Level FlightAware ADS-B (KDZJ)
10:30PM 34.3975 -84.4111 344° North 453 521 34,000  Level FlightAware ADS-B (KDZJ)
10:30PM 34.4794 -84.4385 344° North 451 519 34,000  Level FlightAware ADS-B (KDZJ)
10:31PM 34.5607 -84.4661 344° North 452 520 34,000  Level FlightAware ADS-B (KDZJ)
10:32PM 34.6467 -84.4952 344° North 452 520 34,000  Level FlightAware ADS-B (KDZJ)
10:33PM 34.7275 -84.5226 344° North 452 520 34,000  Level FlightAware ADS-B (KDZJ)
10:33PM 34.8062 -84.5493 344° North 453 521 34,000  Level FlightAware ADS-B (KDZJ)
10:34PM 34.8921 -84.5785 344° North 456 525 34,000  Level FlightAware ADS-B (KDZJ)
10:34PM 34.9713 -84.6058 344° North 467 537 34,000  Level FlightAware ADS-B (KDZJ)
10:35PM 35.0570 -84.6349 344° North 468 539 34,000  Level FlightAware ADS-B (KDZJ)
10:36PM 35.1399 -84.6633 344° North 467 537 34,000  Level FlightAware ADS-B (KDZJ)
10:38PM 35.2665 -84.7067 344° North 462 532 34,000  Level FlightAware ADS-B (KMDQ)
10:39PM 35.3567 -84.7380 344° North 466 536 34,000 -300 Level FlightAware ADS-B (KMDQ)
10:40PM 35.4664 -84.7759 344° North 467 537 33,600 -720 Descending FlightAware ADS-B (KMDQ)
10:41PM 35.5395 -84.8012 344° North 465 535 32,700 -1,020 Descending FlightAware ADS-B (KMDQ)
10:42PM 35.6830 -84.8512 344° North 468 539 31,900 -1,020 Descending FlightAware ADS-B (KMDQ)
10:42PM 35.7765 -84.8835 344° North 456 525 31,300 -900 Descending FlightAware ADS-B (KMDQ)
10:43PM 35.8536 -84.9102 344° North 453 521 30,700 -960 Descending FlightAware ADS-B (KMDQ)
10:43PM 35.9339 -84.9384 344° North 456 525 30,100 -540 Descending FlightAware ADS-B (KMDQ)
10:44PM 35.9962 -84.9604 344° North 459 528 30,000 -120 Descending FlightAware ADS-B (KMDQ)
10:45PM 36.1002 -84.9958 350° North 470 541 30,000  Level FlightAware ADS-B (KMDQ)
10:46PM 36.2197 -85.0009 North 496 571 30,000  Level FlightAware ADS-B (KMDQ)
10:47PM 36.3323 -84.9981 North 498 573 30,000 -180 Level FlightAware ADS-B (KMDQ)
10:47PM 36.4201 -84.9952 North 499 574 29,800 -840 Descending FlightAware ADS-B (KMDQ)
10:48PM 36.5075 -84.9925 North 502 578 29,000 -1,260 Descending FlightAware ADS-B (KMDQ)
10:49PM 36.6497 -84.9883 North 500 575 27,600 -1,680 Descending Indianapolis Center
10:50PM 36.7869 -84.9833 North 498 573 25,400 -2,340 Descending Indianapolis Center
10:51PM 36.9194 -84.9783 North 483 556 22,900 -2,400 Descending Indianapolis Center
10:52PM 37.0514 -84.9739 North 456 525 20,500 -2,520 Descending Indianapolis Center
10:53PM 37.1917 -84.9683 North 435 501 17,800 -2,400 Descending Indianapolis Center
10:54PM 37.3092 -84.9644 North 424 488 15,700 -2,100 Descending Indianapolis Center
10:55PM 37.4217 -84.9611 North 409 471 13,600 -1,980 Descending Indianapolis Center
10:56PM 37.5272 -84.9569 North 387 445 11,700 -1,320 Descending Indianapolis Center
10:57PM 37.6292 -84.9542 North 370 426 11,000 -720 Descending Indianapolis Center
10:58PM 37.7053 -85.0217 325° Northwest 351 404 10,300 -540 Descending Indianapolis Center
10:59PM 37.7614 -85.1033 311° West 317 365 10,000 -660 Descending Indianapolis Center
11:00PM 37.7839 -85.1903 288° West 268 308 9,000 -1,140 Descending Indianapolis Center
11:01PM 37.8058 -85.2736 288° West 255 293 7,800 -1,260 Descending Indianapolis Center
11:02PM 37.8314 -85.3706 288° West 253 291 6,500 -1,200 Descending Indianapolis Center
11:03PM 37.8533 -85.4517 289° West 248 285 5,400 -1,140 Descending Indianapolis Center
11:04PM 37.8989 -85.5158 312° West 242 278 4,200 -840 Descending Indianapolis Center
11:05PM 37.9450 -85.5697 317° Northwest 242 278 3,700 -540 Descending Indianapolis Center
11:08PM 38.0500 -85.6833 320° Northwest 159 183 2,400 -600 Descending Louisville TRACON
11:11PM 38.1500 -85.7333 345° North 130 150 800 -600 Descending Louisville TRACON
11:13PM 38.1667 -85.7333 208° Southwest  Level FlightAware Approximate